createdAt,value
2017-11-26T00:01:00.406Z,10.93
2017-11-26T00:03:27.841Z,10.88
2017-11-26T00:05:55.664Z,8.68
2017-11-26T00:08:23.416Z,13.88
2017-11-26T00:10:50.844Z,13.70
2017-11-26T00:13:18.281Z,11.63
2017-11-26T00:15:46.219Z,12.70
2017-11-26T00:18:13.650Z,18.58
2017-11-26T00:20:41.085Z,11.32
2017-11-26T00:23:08.530Z,11.05
2017-11-26T00:25:35.956Z,10.55
2017-11-26T00:28:03.781Z,10.77
2017-11-26T00:30:31.537Z,12.57
2017-11-26T00:32:58.990Z,8.82
2017-11-26T00:35:26.408Z,12.93
2017-11-26T00:37:54.331Z,12.50
2017-11-26T00:40:21.767Z,13.20
2017-11-26T00:42:49.197Z,15.30
2017-11-26T00:45:16.662Z,15.82
2017-11-26T00:47:44.082Z,9.80
2017-11-26T00:50:11.914Z,10.55
2017-11-26T00:52:39.457Z,10.38
2017-11-26T00:55:06.878Z,11.18
2017-11-26T00:57:34.692Z,10.10
2017-11-26T01:00:02.119Z,9.23
2017-11-26T01:02:29.901Z,9.68
2017-11-26T01:04:57.329Z,11.73
2017-11-26T01:07:24.749Z,9.32
2017-11-26T01:09:52.596Z,15.40
2017-11-26T01:12:20.026Z,11.50
2017-11-26T01:14:47.462Z,11.30
2017-11-26T01:17:14.897Z,16.33
2017-11-26T01:19:42.321Z,8.70
2017-11-26T01:22:09.777Z,14.50
2017-11-26T01:24:37.226Z,14.87
2017-11-26T01:27:04.631Z,14.77
2017-11-26T01:29:32.086Z,12.35
2017-11-26T01:31:59.511Z,16.80
2017-11-26T01:34:27.357Z,14.57
2017-11-26T01:36:55.086Z,15.27
2017-11-26T01:39:22.509Z,15.20
2017-11-26T01:41:49.940Z,14.93
2017-11-26T01:44:17.790Z,13.77
2017-11-26T01:46:45.224Z,15.43
2017-11-26T01:49:12.669Z,16.60
2017-11-26T01:51:40.431Z,15.43
2017-11-26T01:54:07.859Z,17.35
2017-11-26T01:56:35.292Z,19.00
2017-11-26T01:59:03.137Z,14.00
2017-11-26T02:01:30.576Z,15.68
2017-11-26T02:03:58.842Z,16.90
2017-11-26T02:06:27.402Z,16.67
2017-11-26T02:08:54.847Z,19.62
2017-11-26T02:11:22.274Z,16.98
2017-11-26T02:13:50.410Z,15.90
2017-11-26T02:16:17.845Z,16.17
2017-11-26T02:18:45.273Z,17.25
2017-11-26T02:21:12.722Z,16.25
2017-11-26T02:23:40.154Z,18.00
2017-11-26T02:26:07.981Z,22.13
2017-11-26T02:28:35.670Z,19.95
2017-11-26T02:31:03.129Z,16.27
2017-11-26T03:41:13.033Z,15.70
2017-11-26T03:43:40.465Z,20.50
2017-11-26T03:46:07.894Z,23.05
2017-11-26T03:48:35.930Z,20.85
2017-11-26T03:51:03.364Z,26.05
2017-11-26T03:53:30.795Z,17.08
2017-11-26T03:55:58.244Z,17.25
2017-11-26T03:58:25.665Z,20.15
2017-11-26T04:00:53.102Z,19.60
2017-11-26T04:03:20.966Z,23.35
2017-11-26T04:05:48.397Z,18.17
2017-11-26T04:08:15.834Z,18.52
2017-11-26T04:10:43.833Z,15.25
2017-11-26T04:13:11.262Z,22.77
2017-11-26T04:15:38.689Z,18.92
2017-11-26T04:18:06.518Z,17.10
2017-11-26T04:20:33.960Z,17.77
2017-11-26T04:23:01.507Z,17.90
2017-11-26T04:25:28.942Z,16.98
2017-11-26T04:27:56.377Z,18.40
2017-11-26T04:30:24.310Z,17.37
2017-11-26T04:32:51.742Z,19.75
2017-11-26T04:35:19.175Z,19.25
2017-11-26T04:37:46.626Z,19.48
2017-11-26T04:40:14.055Z,19.05
2017-11-26T04:42:41.879Z,20.25
2017-11-26T04:45:09.729Z,21.17
2017-11-26T04:47:37.162Z,16.37
2017-11-26T04:50:04.589Z,18.48
2017-11-26T04:52:33.248Z,20.62
2017-11-26T04:55:00.682Z,11.00
2017-11-26T04:57:28.106Z,15.63
2017-11-26T04:59:55.555Z,18.20
2017-11-26T05:02:22.988Z,16.25
2017-11-26T05:04:50.810Z,20.20
2017-11-26T05:07:18.470Z,17.10
2017-11-26T05:09:45.898Z,21.10
2017-11-26T05:12:13.329Z,16.62
2017-11-26T05:14:41.254Z,17.70
2017-11-26T05:17:08.693Z,14.18
2017-11-26T05:19:36.115Z,10.30
2017-11-26T05:22:03.549Z,17.67
2017-11-26T05:24:31.383Z,16.48
2017-11-26T05:26:58.834Z,15.85
2017-11-26T05:29:26.275Z,16.17
2017-11-26T05:31:53.748Z,14.75
2017-11-26T05:34:21.266Z,17.37
2017-11-26T05:36:48.721Z,15.18
2017-11-26T05:39:16.160Z,17.17
2017-11-26T05:41:43.990Z,15.90
2017-11-26T05:44:11.433Z,14.27
2017-11-26T05:46:38.865Z,11.48
2017-11-26T05:49:06.397Z,15.43
2017-11-26T05:51:33.831Z,13.70
2017-11-26T05:54:01.658Z,16.62
2017-11-26T05:56:29.110Z,14.30
2017-11-26T05:58:56.550Z,18.08
2017-11-26T06:01:23.987Z,19.45
2017-11-26T06:03:51.440Z,18.20
2017-11-26T06:06:18.873Z,15.38
2017-11-26T06:08:46.702Z,17.98
2017-11-26T06:11:14.162Z,20.88
2017-11-26T06:13:41.594Z,17.48
2017-11-26T06:16:09.039Z,16.90
2017-11-26T06:18:36.489Z,13.60
2017-11-26T06:21:03.922Z,15.52
2017-11-26T06:23:31.354Z,14.52
2017-11-26T06:25:59.194Z,18.50
2017-11-26T06:28:26.635Z,16.58
2017-11-26T06:30:54.077Z,17.23
2017-11-26T06:33:21.756Z,15.38
2017-11-26T06:35:49.194Z,17.85
2017-11-26T06:38:16.629Z,17.90
2017-11-26T06:40:44.083Z,13.35
2017-11-26T06:43:11.514Z,15.85
2017-11-26T06:45:39.338Z,19.45
2017-11-26T06:48:07.039Z,21.52
2017-11-26T06:50:34.870Z,16.12
2017-11-26T06:53:02.299Z,21.00
2017-11-26T06:55:29.760Z,18.70
2017-11-26T06:57:57.198Z,21.60
2017-11-26T07:00:24.626Z,23.95
2017-11-26T07:02:52.848Z,20.40
2017-11-26T07:05:20.278Z,16.52
2017-11-26T07:07:47.715Z,15.95
2017-11-26T07:10:15.575Z,21.10
2017-11-26T07:12:43.414Z,24.15
2017-11-26T07:15:10.844Z,23.10
2017-11-26T07:17:38.602Z,21.67
2017-11-26T07:20:06.033Z,20.20
2017-11-26T07:22:33.466Z,20.20
2017-11-26T07:25:01.327Z,16.40
2017-11-26T07:27:29.138Z,19.13
2017-11-26T07:29:56.581Z,19.65
2017-11-26T07:32:24.041Z,20.30
2017-11-26T07:37:25.757Z,24.83
2017-11-26T07:39:53.583Z,22.00
2017-11-26T07:42:21.017Z,20.48
2017-11-26T07:44:48.471Z,26.70
2017-11-26T07:47:15.923Z,30.77
2017-11-26T07:49:43.350Z,25.03
2017-11-26T07:52:11.274Z,29.67
2017-11-26T07:54:38.716Z,33.93
2017-11-26T07:57:06.151Z,25.92
2017-11-26T07:59:33.595Z,29.95
2017-11-26T08:02:01.035Z,32.95
2017-11-26T08:04:29.122Z,27.57
2017-11-26T08:06:56.567Z,25.75
2017-11-26T08:09:24.394Z,30.55
2017-11-26T08:11:52.141Z,35.58
2017-11-26T08:14:19.573Z,26.07
2017-11-26T08:16:46.997Z,33.83
2017-11-26T08:19:14.858Z,34.92
2017-11-26T08:21:42.684Z,35.97
2017-11-26T08:24:10.125Z,37.63
2017-11-26T08:26:37.715Z,25.00
2017-11-26T08:29:05.143Z,40.50
2017-11-26T08:31:32.602Z,26.97
2017-11-26T08:34:00.423Z,30.75
2017-11-26T08:36:28.233Z,27.80
2017-11-26T08:38:55.678Z,28.47
2017-11-26T08:41:24.058Z,27.95
2017-11-26T08:43:51.502Z,27.98
2017-11-26T08:46:18.949Z,24.48
2017-11-26T08:48:46.378Z,30.50
2017-11-26T08:51:14.209Z,23.23
2017-11-26T08:53:41.671Z,26.45
2017-11-26T08:56:09.103Z,27.55
2017-11-26T08:58:36.544Z,25.10
2017-11-26T09:01:04.209Z,28.70
2017-11-26T09:03:31.653Z,25.80
2017-11-26T09:05:59.074Z,19.40
2017-11-26T09:08:29.258Z,23.03
2017-11-26T09:10:56.690Z,21.87
2017-11-26T09:13:24.124Z,25.70
2017-11-26T09:15:51.915Z,24.80
2017-11-26T09:18:19.671Z,20.10
2017-11-26T09:20:47.090Z,21.27
2017-11-26T09:23:15.094Z,23.43
2017-11-26T09:25:42.527Z,29.33
2017-11-26T09:28:09.955Z,26.13
2017-11-26T09:30:38.085Z,23.53
2017-11-26T09:33:05.516Z,18.87
2017-11-26T09:35:32.970Z,21.48
2017-11-26T09:38:00.431Z,20.20
2017-11-26T09:40:27.865Z,19.58
2017-11-26T09:42:55.310Z,24.70
2017-11-26T09:45:23.189Z,23.50
2017-11-26T09:47:50.626Z,23.08
2017-11-26T09:50:18.856Z,19.67
2017-11-26T09:52:46.286Z,21.90
2017-11-26T09:55:13.737Z,22.63
2017-11-26T09:57:41.415Z,28.90
2017-11-26T10:00:08.844Z,17.90
2017-11-26T10:02:36.275Z,18.47
2017-11-26T10:05:04.150Z,17.20
2017-11-26T10:07:31.990Z,14.67
2017-11-26T10:09:59.422Z,21.40
2017-11-26T10:12:27.790Z,21.90
2017-11-26T10:14:55.228Z,12.93
2017-11-26T10:17:22.695Z,16.20
2017-11-26T10:19:50.349Z,13.63
2017-11-26T10:22:17.788Z,13.10
2017-11-26T10:24:45.219Z,18.00
2017-11-26T10:27:13.070Z,12.70
2017-11-26T10:29:40.903Z,13.90
2017-11-26T10:32:08.332Z,21.70
2017-11-26T10:34:36.572Z,11.83
2017-11-26T10:37:04.404Z,16.77
2017-11-26T10:39:31.902Z,21.43
2017-11-26T10:41:59.357Z,22.33
2017-11-26T10:44:26.823Z,17.17
2017-11-26T10:46:54.252Z,16.70
2017-11-26T10:49:22.074Z,18.47
2017-11-26T10:51:49.616Z,17.70
2017-11-26T10:54:17.041Z,16.33
2017-11-26T10:56:44.532Z,16.63
2017-11-26T10:59:11.996Z,18.80
2017-11-26T11:01:39.442Z,22.03
2017-11-26T11:04:07.160Z,15.70
2017-11-26T11:06:34.662Z,25.67
2017-11-26T11:09:02.100Z,17.77
2017-11-26T11:11:29.879Z,15.80
2017-11-26T11:13:57.313Z,15.30
2017-11-26T11:16:24.734Z,15.93
2017-11-26T11:18:52.575Z,16.97
2017-11-26T11:21:20.023Z,12.23
2017-11-26T11:23:47.465Z,13.20
2017-11-26T11:26:14.904Z,20.60
2017-11-26T11:28:42.338Z,12.77
2017-11-26T11:31:09.798Z,17.70
2017-11-26T11:33:53.909Z,14.40
2017-11-26T11:36:21.353Z,15.40
2017-11-26T11:38:48.790Z,11.47
2017-11-26T11:41:16.215Z,14.20
2017-11-26T11:43:43.678Z,12.17
2017-11-26T11:46:11.102Z,11.33
2017-11-26T11:48:38.545Z,11.10
2017-11-26T11:51:05.982Z,9.37
2017-11-26T11:53:33.418Z,17.67
2017-11-26T11:56:00.847Z,8.93
2017-11-26T11:58:28.305Z,9.93
2017-11-26T12:00:55.731Z,8.53
2017-11-26T12:03:23.554Z,11.80
2017-11-26T12:05:51.095Z,8.90
2017-11-26T12:08:18.518Z,8.90
2017-11-26T12:10:45.942Z,7.23
2017-11-26T12:13:13.789Z,9.00
2017-11-26T12:15:41.221Z,11.37
2017-11-26T12:18:08.663Z,10.80
2017-11-26T12:20:36.204Z,7.07
2017-11-26T12:23:03.627Z,8.43
2017-11-26T12:25:34.649Z,5.80
2017-11-26T12:28:02.098Z,7.53
2017-11-26T12:30:29.526Z,8.60
2017-11-26T12:32:56.943Z,9.37
2017-11-26T12:35:24.782Z,8.37
2017-11-26T12:37:52.194Z,6.10
2017-11-26T12:40:19.624Z,6.37
2017-11-26T12:42:47.060Z,8.27
2017-11-26T12:45:14.895Z,10.20
2017-11-26T12:47:42.323Z,13.13
2017-11-26T12:50:09.777Z,8.63
2017-11-26T12:52:37.622Z,8.33
2017-11-26T12:55:05.487Z,6.70
2017-11-26T12:57:32.928Z,9.20
2017-11-26T13:00:00.350Z,8.57
2017-11-26T13:02:27.779Z,7.30
2017-11-26T13:04:55.215Z,7.63
2017-11-26T13:07:22.658Z,8.20
2017-11-26T13:09:50.087Z,7.70
2017-11-26T13:12:17.915Z,7.37
2017-11-26T13:14:45.378Z,9.73
2017-11-26T13:17:12.802Z,7.93
2017-11-26T13:19:40.229Z,6.97
2017-11-26T13:22:08.083Z,7.77
2017-11-26T13:24:35.513Z,9.50
2017-11-26T13:27:02.946Z,12.20
2017-11-26T13:29:30.435Z,7.57
2017-11-26T13:31:57.853Z,9.70
2017-11-26T13:34:25.284Z,9.97
2017-11-26T13:36:52.875Z,10.43
2017-11-26T13:39:20.303Z,5.43
2017-11-26T13:41:47.746Z,9.07
2017-11-26T13:44:16.266Z,7.37
2017-11-26T13:46:43.682Z,8.13
2017-11-26T13:49:11.107Z,7.20
2017-11-26T13:51:38.941Z,5.57
2017-11-26T13:54:06.378Z,6.27
2017-11-26T13:56:33.812Z,6.00
2017-11-26T13:59:01.250Z,6.17
2017-11-26T14:01:29.068Z,9.53
2017-11-26T14:03:56.497Z,4.00
2017-11-26T14:06:24.905Z,5.50
2017-11-26T14:08:52.483Z,9.70
2017-11-26T14:11:19.906Z,5.87
2017-11-26T14:13:47.375Z,8.20
2017-11-26T14:16:14.823Z,4.70
2017-11-26T14:18:42.310Z,9.13
2017-11-26T14:21:09.778Z,7.13
2017-11-26T14:23:37.635Z,4.77
2017-11-26T14:26:05.195Z,3.70
2017-11-26T14:28:33.014Z,5.53
2017-11-26T14:31:00.453Z,5.57
2017-11-26T14:33:27.897Z,5.50
2017-11-26T14:35:55.592Z,6.40
2017-11-26T14:38:23.102Z,7.43
2017-11-26T14:40:50.922Z,10.33
2017-11-26T14:43:18.483Z,7.50
2017-11-26T14:45:45.906Z,6.90
2017-11-26T14:48:14.666Z,9.13
2017-11-26T14:50:42.469Z,5.93
2017-11-26T14:53:10.678Z,9.07
2017-11-26T14:55:39.150Z,8.77
2017-11-26T14:58:06.595Z,6.40
2017-11-26T15:00:34.034Z,8.23
2017-11-26T15:03:01.524Z,12.63
2017-11-26T15:05:29.367Z,5.23
2017-11-26T15:07:56.956Z,10.90
2017-11-26T15:10:24.919Z,6.67
2017-11-26T15:12:52.972Z,7.70
2017-11-26T15:15:20.587Z,7.33
2017-11-26T15:17:48.026Z,10.50
2017-11-26T15:20:15.506Z,5.40
2017-11-26T15:22:43.127Z,5.93
2017-11-26T15:25:10.960Z,5.90
2017-11-26T15:27:38.410Z,6.80
2017-11-26T15:30:05.845Z,11.50
2017-11-26T15:32:33.283Z,5.43
2017-11-26T15:35:00.750Z,8.50
2017-11-26T15:37:28.191Z,6.10
2017-11-26T15:39:55.634Z,4.40
2017-11-26T15:42:23.078Z,8.33
2017-11-26T15:44:50.514Z,8.00
2017-11-26T15:47:18.649Z,5.37
2017-11-26T15:49:46.091Z,5.77
2017-11-26T15:52:13.537Z,4.60
2017-11-26T15:54:41.002Z,6.40
2017-11-26T15:57:08.437Z,6.93
2017-11-26T15:59:35.918Z,9.53
2017-11-26T16:02:03.387Z,8.53
2017-11-26T16:04:30.837Z,9.17
2017-11-26T16:06:58.283Z,11.10
2017-11-26T16:09:25.819Z,7.70
2017-11-26T16:11:53.254Z,5.60
2017-11-26T16:14:20.700Z,6.13
2017-11-26T16:16:48.532Z,5.67
2017-11-26T16:19:15.972Z,6.17
2017-11-26T16:21:43.414Z,4.53
2017-11-26T16:24:10.825Z,5.70
2017-11-26T16:26:38.680Z,5.97
2017-11-26T16:29:06.496Z,6.53
2017-11-26T16:31:33.921Z,6.77
2017-11-26T16:34:01.874Z,7.33
2017-11-26T16:36:29.705Z,9.57
2017-11-26T16:38:58.838Z,13.20
2017-11-26T16:41:26.266Z,6.80
2017-11-26T16:43:53.699Z,5.03
2017-11-26T16:46:21.455Z,6.83
2017-11-26T16:48:48.882Z,5.13
2017-11-26T16:51:16.507Z,8.67
2017-11-26T16:53:44.358Z,5.33
2017-11-26T16:56:11.791Z,6.53
2017-11-26T16:58:39.223Z,7.37
2017-11-26T17:01:06.680Z,6.50
2017-11-26T17:03:34.099Z,3.67
2017-11-26T17:06:02.277Z,5.60
2017-11-26T17:08:30.610Z,6.07
2017-11-26T17:10:58.032Z,6.00
2017-11-26T17:13:25.462Z,11.13
2017-11-26T17:15:53.298Z,5.40
2017-11-26T17:18:20.728Z,6.10
2017-11-26T17:20:48.149Z,7.10
2017-11-26T17:23:15.606Z,6.93
2017-11-26T17:25:43.038Z,5.50
2017-11-26T17:28:10.870Z,8.17
2017-11-26T17:30:38.528Z,5.77
2017-11-26T17:33:05.953Z,9.60
2017-11-26T17:35:33.374Z,5.47
2017-11-26T17:38:00.811Z,11.30
2017-11-26T17:40:28.641Z,6.83
2017-11-26T17:42:56.400Z,5.93
2017-11-26T17:45:23.834Z,6.20
2017-11-26T17:47:51.267Z,6.03
2017-11-26T17:50:19.110Z,4.90
2017-11-26T17:52:46.646Z,5.43
2017-11-26T17:55:14.151Z,4.73
2017-11-26T17:57:42.115Z,9.27
2017-11-26T18:00:09.949Z,7.00
2017-11-26T18:02:37.378Z,8.03
2017-11-26T18:05:04.802Z,5.90
2017-11-26T18:07:32.258Z,5.40
2017-11-26T18:09:59.694Z,8.30
2017-11-26T18:12:27.813Z,6.70
2017-11-26T18:14:55.246Z,8.23
2017-11-26T18:17:22.702Z,5.87
2017-11-26T18:19:50.126Z,4.50
2017-11-26T18:22:18.094Z,9.03
2017-11-26T18:24:46.020Z,7.33
2017-11-26T18:27:13.676Z,6.83
2017-11-26T18:29:41.310Z,9.47
2017-11-26T18:32:09.004Z,6.83
2017-11-26T18:35:00.634Z,5.20
2017-11-26T18:37:28.191Z,9.87
2017-11-26T18:39:55.635Z,7.57
2017-11-26T18:42:23.067Z,8.90
2017-11-26T18:44:50.535Z,6.57
2017-11-26T18:47:18.085Z,8.83
2017-11-26T18:49:45.526Z,5.50
2017-11-26T18:52:13.084Z,4.60
2017-11-26T18:54:41.330Z,6.93
2017-11-26T18:57:09.391Z,8.47
2017-11-26T18:59:37.230Z,6.90
2017-11-26T19:02:04.714Z,3.53
2017-11-26T19:04:32.578Z,6.67
2017-11-26T19:07:00.403Z,5.87
2017-11-26T19:09:27.859Z,8.50
2017-11-26T19:11:56.347Z,7.13
2017-11-26T19:14:23.816Z,5.60
2017-11-26T19:16:51.247Z,7.23
2017-11-26T19:19:18.712Z,7.30
2017-11-26T19:21:46.160Z,5.50
2017-11-26T19:24:13.609Z,5.50
2017-11-26T19:26:41.064Z,6.20
2017-11-26T19:29:08.517Z,7.40
2017-11-26T19:31:35.966Z,5.77
2017-11-26T19:34:03.423Z,7.77
2017-11-26T19:36:30.875Z,7.50
2017-11-26T19:38:58.389Z,5.77
2017-11-26T19:41:26.246Z,12.03
2017-11-26T19:43:54.402Z,9.03
2017-11-26T19:46:21.847Z,8.30
2017-11-26T19:48:49.315Z,9.27
2017-11-26T19:51:17.181Z,6.03
2017-11-26T19:53:44.622Z,7.13
2017-11-26T19:56:12.086Z,4.60
2017-11-26T19:58:45.290Z,5.83
2017-11-26T20:01:13.147Z,6.17
2017-11-26T20:03:40.596Z,5.57
2017-11-26T20:06:08.055Z,10.50
2017-11-26T20:08:35.514Z,5.53
2017-11-26T20:11:02.936Z,5.40
2017-11-26T20:13:30.539Z,4.63
2017-11-26T20:15:58.382Z,8.57
2017-11-26T20:18:25.863Z,6.33
2017-11-26T20:20:53.707Z,4.73
2017-11-26T20:23:21.160Z,4.10
2017-11-26T20:25:48.587Z,7.87
2017-11-26T20:28:16.362Z,3.20
2017-11-26T20:30:44.762Z,6.10
2017-11-26T20:33:12.896Z,6.97
2017-11-26T20:35:40.347Z,6.13
2017-11-26T20:38:07.806Z,5.73
2017-11-26T20:40:35.459Z,5.77
2017-11-26T20:43:02.908Z,8.03
2017-11-26T20:45:30.340Z,5.90
2017-11-26T20:47:57.824Z,8.47
2017-11-26T20:50:25.291Z,10.60
2017-11-26T20:52:52.746Z,7.43
2017-11-26T20:55:27.020Z,6.80
2017-11-26T20:57:54.559Z,6.00
2017-11-26T21:00:22.421Z,7.10
2017-11-26T21:02:55.067Z,5.40
2017-11-26T21:05:22.580Z,6.47
2017-11-26T21:07:50.134Z,6.93
2017-11-26T21:10:20.538Z,11.33
2017-11-26T21:13:02.064Z,6.00
2017-11-26T21:15:32.585Z,5.93
2017-11-26T21:18:02.529Z,15.00
2017-11-26T21:20:31.948Z,5.80
2017-11-26T21:23:01.321Z,13.97
2017-11-26T21:25:28.892Z,7.97
2017-11-26T21:28:00.171Z,3.97
2017-11-26T21:30:27.716Z,6.73
2017-11-26T21:33:01.572Z,5.63
2017-11-26T21:38:30.350Z,6.37
2017-11-26T21:40:58.082Z,5.80
2017-11-26T21:43:26.931Z,9.97
2017-11-26T22:12:56.259Z,6.17
2017-11-26T22:15:31.370Z,7.90
2017-11-26T22:18:02.971Z,7.10
2017-11-26T22:20:31.505Z,6.10
2017-11-26T22:22:59.504Z,4.60
2017-11-26T22:25:26.993Z,5.47
2017-11-26T22:27:58.478Z,10.23
2017-11-26T22:30:36.979Z,9.80
2017-11-26T22:36:23.940Z,7.03
2017-11-26T22:38:51.537Z,9.13
2017-11-26T22:41:20.306Z,6.60
2017-11-26T22:43:48.448Z,9.53
2017-11-26T22:52:24.323Z,6.33
2017-11-26T22:55:27.802Z,8.52
2017-11-26T23:04:05.325Z,8.67
2017-11-26T23:06:33.594Z,9.20
2017-11-26T23:09:01.115Z,6.80
2017-11-26T23:11:51.968Z,8.90
2017-11-26T23:14:21.836Z,8.00
2017-11-26T23:16:55.867Z,6.43
2017-11-26T23:19:36.359Z,5.70
2017-11-26T23:22:04.660Z,5.50
2017-11-26T23:24:32.146Z,9.23
2017-11-26T23:27:01.990Z,6.70
2017-11-26T23:29:31.196Z,8.90
2017-11-26T23:31:59.768Z,15.33
2017-11-26T23:34:30.832Z,6.20
2017-11-26T23:36:58.372Z,6.17
2017-11-26T23:39:26.405Z,9.27
2017-11-26T23:41:57.525Z,7.33
2017-11-26T23:44:25.404Z,8.40
2017-11-26T23:46:52.979Z,4.20
2017-11-26T23:49:20.464Z,5.00
2017-11-26T23:51:48.373Z,5.93
2017-11-26T23:54:15.860Z,7.27
2017-11-26T23:56:43.375Z,9.30
2017-11-26T23:59:10.878Z,6.47
